createdAt,value
2022-12-15T00:01:25.728Z,-10.46
2022-12-15T00:04:11.014Z,-10.47
2022-12-15T00:06:56.326Z,-10.99
2022-12-15T00:09:41.002Z,-11.25
2022-12-15T00:12:25.867Z,-11.20
2022-12-15T00:15:10.644Z,-11.18
2022-12-15T00:17:55.364Z,-10.74
2022-12-15T00:20:40.118Z,-10.62
2022-12-15T00:23:27.153Z,-10.82
2022-12-15T00:26:12.199Z,-10.60
2022-12-15T00:28:56.951Z,-10.60
2022-12-15T00:31:42.187Z,-10.38
2022-12-15T00:34:27.480Z,-10.28
2022-12-15T00:37:12.801Z,-10.38
2022-12-15T00:39:40.240Z,-10.40
2022-12-15T00:42:08.056Z,-10.38
2022-12-15T00:44:34.494Z,-10.39
2022-12-15T00:47:01.172Z,-10.34
2022-12-15T00:49:48.128Z,-10.27
2022-12-15T00:52:34.440Z,-10.16
2022-12-15T00:55:19.056Z,-10.07
2022-12-15T00:58:04.288Z,-10.21
2022-12-15T01:00:49.555Z,-10.11
2022-12-15T01:03:42.033Z,-9.93
2022-12-15T01:06:33.161Z,-9.82
2022-12-15T01:09:18.378Z,-9.81
2022-12-15T01:12:04.141Z,-9.76
2022-12-15T01:14:50.482Z,-9.57
2022-12-15T01:17:36.265Z,-9.42
2022-12-15T01:20:20.045Z,-9.75
2022-12-15T01:22:54.690Z,-9.72
2022-12-15T01:25:24.139Z,-9.50
2022-12-15T01:27:51.156Z,-9.66
2022-12-15T01:30:23.506Z,-9.58
2022-12-15T01:32:50.174Z,-9.48
2022-12-15T01:35:17.605Z,-9.44
2022-12-15T01:37:44.866Z,-9.28
2022-12-15T01:40:36.960Z,-9.08
2022-12-15T01:43:03.401Z,-8.94
2022-12-15T01:45:29.718Z,-8.84
2022-12-15T01:48:09.278Z,-8.78
2022-12-15T01:50:42.190Z,-8.79
2022-12-15T01:53:10.651Z,-8.50
2022-12-15T01:55:38.939Z,-8.51
2022-12-15T01:58:08.921Z,-8.49
2022-12-15T02:00:35.825Z,-8.57
2022-12-15T02:03:04.417Z,-8.38
2022-12-15T02:05:31.820Z,-8.28
2022-12-15T02:08:00.517Z,-8.12
2022-12-15T02:10:34.335Z,-8.18
2022-12-15T02:13:28.713Z,-8.11
2022-12-15T02:16:24.336Z,-8.09
2022-12-15T02:19:17.783Z,-8.06
2022-12-15T02:21:56.548Z,-8.03
2022-12-15T02:24:25.605Z,-8.01
2022-12-15T02:26:55.033Z,-8.00
2022-12-15T02:29:49.254Z,-7.98
2022-12-15T02:32:26.437Z,-7.93
2022-12-15T02:35:01.714Z,-7.84
2022-12-15T02:37:39.721Z,-7.74
2022-12-15T02:40:10.063Z,-7.77
2022-12-15T02:42:42.468Z,-7.77
2022-12-15T02:45:13.991Z,-7.72
2022-12-15T02:48:11.752Z,-7.77
2022-12-15T02:51:20.397Z,-7.78
2022-12-15T02:54:06.650Z,-7.82
2022-12-15T02:56:50.095Z,-7.90
2022-12-15T02:59:37.784Z,-7.89
2022-12-15T03:02:06.504Z,-7.98
2022-12-15T03:04:33.927Z,-7.91
2022-12-15T03:07:03.853Z,-7.98
2022-12-15T03:09:33.287Z,-8.06
2022-12-15T03:11:59.905Z,-8.09
2022-12-15T03:14:26.871Z,-7.97
2022-12-15T03:16:54.677Z,-7.94
2022-12-15T03:19:21.283Z,-7.95
2022-12-15T03:21:47.700Z,-7.91
2022-12-15T03:24:14.103Z,-7.92
2022-12-15T03:26:40.480Z,-7.84
2022-12-15T03:29:07.214Z,-8.03
2022-12-15T03:31:33.738Z,-8.05
2022-12-15T03:34:00.155Z,-8.05
2022-12-15T03:36:26.608Z,-8.06
2022-12-15T03:38:53.057Z,-8.18
2022-12-15T03:41:20.029Z,-8.15
2022-12-15T03:43:46.539Z,-8.14
2022-12-15T03:46:16.317Z,-8.22
2022-12-15T03:48:42.709Z,-8.19
2022-12-15T03:51:09.295Z,-8.22
2022-12-15T03:53:35.762Z,-8.36
2022-12-15T03:56:02.188Z,-8.37
2022-12-15T03:58:28.592Z,-8.38
2022-12-15T04:00:55.470Z,-8.27
2022-12-15T04:03:22.016Z,-8.25
2022-12-15T04:05:48.712Z,-8.29
2022-12-15T04:08:15.241Z,-8.34
2022-12-15T04:10:43.481Z,-8.08
2022-12-15T04:13:11.540Z,-8.00
2022-12-15T04:15:39.813Z,-8.30
2022-12-15T04:18:09.843Z,-8.35
2022-12-15T04:20:37.064Z,-8.36
2022-12-15T04:23:03.928Z,-8.48
2022-12-15T04:25:48.943Z,-8.32
2022-12-15T04:28:33.645Z,-8.38
2022-12-15T04:31:27.520Z,-8.43
2022-12-15T04:34:27.071Z,-8.25
2022-12-15T04:37:12.839Z,-8.51
2022-12-15T04:40:01.224Z,-8.61
2022-12-15T04:42:47.083Z,-8.50
2022-12-15T04:45:33.207Z,-8.42
2022-12-15T04:48:18.316Z,-8.37
2022-12-15T04:51:03.015Z,-8.32
2022-12-15T04:53:47.680Z,-8.46
2022-12-15T04:56:33.999Z,-8.34
2022-12-15T04:59:19.202Z,-8.34
2022-12-15T05:02:04.453Z,-7.99
2022-12-15T05:04:49.698Z,-8.25
2022-12-15T05:07:34.891Z,-8.39
2022-12-15T05:10:20.116Z,-8.55
2022-12-15T05:13:04.883Z,-8.75
2022-12-15T05:15:51.280Z,-8.78
2022-12-15T05:18:36.363Z,-8.77
2022-12-15T05:21:21.633Z,-8.68
2022-12-15T05:24:06.758Z,-8.79
2022-12-15T05:26:53.258Z,-8.56
2022-12-15T05:29:39.399Z,-8.78
2022-12-15T05:32:07.119Z,-8.81
2022-12-15T05:34:35.556Z,-8.79
2022-12-15T05:37:03.707Z,-8.76
2022-12-15T05:39:30.190Z,-9.02
2022-12-15T05:41:57.285Z,-8.94
2022-12-15T05:44:26.785Z,-8.75
2022-12-15T05:46:53.307Z,-8.94
2022-12-15T05:49:20.489Z,-8.95
2022-12-15T05:51:47.993Z,-8.93
2022-12-15T05:54:16.852Z,-8.94
2022-12-15T05:56:43.541Z,-8.93
2022-12-15T05:59:10.315Z,-9.02
2022-12-15T06:01:36.773Z,-8.84
2022-12-15T06:04:04.254Z,-8.90
2022-12-15T06:06:30.657Z,-8.86
2022-12-15T06:08:57.097Z,-9.01
2022-12-15T06:11:23.797Z,-8.93
2022-12-15T06:13:50.337Z,-8.88
2022-12-15T06:16:21.966Z,-8.80
2022-12-15T06:18:52.470Z,-8.95
2022-12-15T06:21:25.912Z,-8.93
2022-12-15T06:23:53.196Z,-8.97
2022-12-15T06:26:22.622Z,-8.88
2022-12-15T06:28:50.040Z,-8.79
2022-12-15T06:31:19.190Z,-8.94
2022-12-15T06:33:45.697Z,-9.01
2022-12-15T06:36:14.612Z,-8.84
2022-12-15T06:38:44.191Z,-8.95
2022-12-15T06:41:13.361Z,-9.09
2022-12-15T06:43:40.360Z,-9.02
2022-12-15T06:46:07.570Z,-8.57
2022-12-15T06:48:34.138Z,-8.82
2022-12-15T06:51:05.342Z,-8.76
2022-12-15T06:53:32.924Z,-8.80
2022-12-15T06:56:04.052Z,-8.80
2022-12-15T06:58:30.511Z,-8.51
2022-12-15T07:00:57.298Z,-8.71
2022-12-15T07:03:24.528Z,-8.64
2022-12-15T07:06:11.141Z,-8.80
2022-12-15T07:08:41.343Z,-8.77
2022-12-15T07:11:11.429Z,-8.71
2022-12-15T07:13:39.203Z,-8.80
2022-12-15T07:16:07.285Z,-8.94
2022-12-15T07:18:33.916Z,-8.69
2022-12-15T07:21:05.811Z,-8.93
2022-12-15T07:23:53.653Z,-8.89
2022-12-15T07:26:20.842Z,-8.99
2022-12-15T07:28:47.759Z,-8.85
2022-12-15T07:31:15.446Z,-9.02
2022-12-15T07:33:42.401Z,-8.85
2022-12-15T07:36:09.172Z,-9.02
2022-12-15T07:38:35.828Z,-8.98
2022-12-15T07:41:04.956Z,-8.64
2022-12-15T07:43:32.659Z,-8.82
2022-12-15T07:45:59.630Z,-8.89
2022-12-15T07:48:27.222Z,-8.71
2022-12-15T07:51:05.104Z,-8.62
2022-12-15T07:53:36.104Z,-8.79
2022-12-15T07:56:09.073Z,-8.82
2022-12-15T07:58:36.747Z,-8.77
2022-12-15T08:01:05.987Z,-8.61
2022-12-15T08:03:33.469Z,-8.58
2022-12-15T08:06:05.464Z,-8.66
2022-12-15T08:08:33.272Z,-8.57
2022-12-15T08:11:04.433Z,-8.59
2022-12-15T08:14:01.442Z,-8.60
2022-12-15T08:16:17.271Z,-8.52
2022-12-15T08:18:43.743Z,-8.49
2022-12-15T08:21:10.824Z,-8.44
2022-12-15T08:23:38.945Z,-8.44
2022-12-15T08:26:12.297Z,-8.39
2022-12-15T08:28:40.244Z,-8.27
2022-12-15T08:31:12.391Z,-8.18
2022-12-15T08:33:39.729Z,-8.14
2022-12-15T08:36:09.201Z,-7.98
2022-12-15T08:38:38.519Z,-7.86
2022-12-15T08:41:17.198Z,-7.71
2022-12-15T08:43:48.625Z,-7.67
2022-12-15T08:46:17.572Z,-7.68
2022-12-15T08:48:44.509Z,-7.58
2022-12-15T08:51:11.909Z,-7.51
2022-12-15T08:53:38.686Z,-7.44
2022-12-15T08:56:08.085Z,-7.37
2022-12-15T08:58:34.805Z,-7.24
2022-12-15T09:01:06.897Z,-7.14
2022-12-15T09:03:35.480Z,-7.15
2022-12-15T09:06:06.417Z,-7.10
2022-12-15T09:08:33.608Z,-7.05
2022-12-15T09:11:01.161Z,-7.04
2022-12-15T09:13:28.635Z,-6.98
2022-12-15T09:16:09.223Z,-6.92
2022-12-15T09:18:36.594Z,-6.87
2022-12-15T09:21:06.127Z,-6.86
2022-12-15T09:23:33.642Z,-6.77
2022-12-15T09:26:05.412Z,-6.75
2022-12-15T09:28:32.150Z,-6.66
2022-12-15T09:31:07.074Z,-6.63
2022-12-15T09:33:34.319Z,-6.52
2022-12-15T09:36:01.361Z,-6.52
2022-12-15T09:38:27.907Z,-6.48
2022-12-15T09:40:54.361Z,-6.48
2022-12-15T09:43:46.160Z,-6.44
2022-12-15T09:46:38.428Z,-6.37
2022-12-15T09:49:25.199Z,-6.36
2022-12-15T09:52:10.370Z,-6.38
2022-12-15T09:54:38.679Z,-6.23
2022-12-15T09:57:11.544Z,-6.28
2022-12-15T10:00:05.246Z,-6.12
2022-12-15T10:02:58.200Z,-6.00
2022-12-15T10:05:57.611Z,-5.88
2022-12-15T10:08:24.185Z,-5.95
2022-12-15T10:10:58.595Z,-5.97
2022-12-15T10:13:53.488Z,-5.94
2022-12-15T10:16:28.043Z,-6.03
2022-12-15T10:19:07.386Z,-5.94
2022-12-15T10:21:34.698Z,-5.83
2022-12-15T10:24:31.575Z,-5.80
2022-12-15T10:27:13.722Z,-5.81
2022-12-15T10:29:50.830Z,-5.62
2022-12-15T10:32:31.797Z,-5.55
2022-12-15T10:34:58.266Z,-5.64
2022-12-15T10:37:24.756Z,-5.59
2022-12-15T10:39:51.422Z,-5.53
2022-12-15T10:42:23.780Z,-5.56
2022-12-15T10:44:55.519Z,-5.50
2022-12-15T10:47:27.694Z,-5.56
2022-12-15T10:49:56.201Z,-5.41
2022-12-15T10:52:36.585Z,-5.38
2022-12-15T10:55:36.262Z,-5.44
2022-12-15T10:58:05.457Z,-5.47
2022-12-15T11:00:33.236Z,-5.48
2022-12-15T11:03:00.118Z,-5.41
2022-12-15T11:05:27.350Z,-5.36
2022-12-15T11:07:56.248Z,-5.32
2022-12-15T11:10:51.638Z,-5.36
2022-12-15T11:13:20.692Z,-5.29
2022-12-15T11:15:51.806Z,-5.31
2022-12-15T11:18:33.567Z,-5.29
2022-12-15T11:21:09.897Z,-5.27
2022-12-15T11:23:55.194Z,-5.18
2022-12-15T11:26:46.858Z,-5.05
2022-12-15T11:29:21.698Z,-5.05
2022-12-15T11:31:48.929Z,-5.04
2022-12-15T11:34:18.306Z,-5.02
2022-12-15T11:37:10.688Z,-4.94
2022-12-15T11:39:41.869Z,-4.85
2022-12-15T11:42:20.163Z,-4.91
2022-12-15T11:45:01.995Z,-4.85
2022-12-15T11:47:44.863Z,-4.85
2022-12-15T11:50:53.490Z,-4.89
2022-12-15T11:53:32.074Z,-4.83
2022-12-15T11:56:18.024Z,-4.78
2022-12-15T11:59:09.066Z,-4.78
2022-12-15T12:02:00.712Z,-4.80
2022-12-15T12:05:00.324Z,-4.73
2022-12-15T12:07:52.988Z,-4.68
2022-12-15T12:10:25.444Z,-4.62
2022-12-15T12:13:09.796Z,-4.65
2022-12-15T12:15:45.423Z,-4.60
2022-12-15T12:18:16.193Z,-4.61
2022-12-15T12:20:52.156Z,-4.47
2022-12-15T12:23:42.084Z,-4.39
2022-12-15T12:26:19.390Z,-4.38
2022-12-15T12:29:28.140Z,-4.41
2022-12-15T12:32:03.832Z,-4.49
2022-12-15T12:34:39.913Z,-4.47
2022-12-15T12:37:21.622Z,-4.29
2022-12-15T12:39:51.880Z,-4.25
2022-12-15T12:42:38.548Z,-4.32
2022-12-15T12:45:05.646Z,-4.37
2022-12-15T12:47:37.002Z,-4.26
2022-12-15T12:50:14.856Z,-4.20
2022-12-15T12:52:55.472Z,-4.28
2022-12-15T12:55:42.182Z,-4.17
2022-12-15T12:58:45.364Z,-4.28
2022-12-15T13:01:20.016Z,-4.19
2022-12-15T13:04:06.487Z,-4.11
2022-12-15T13:06:35.629Z,-4.10
2022-12-15T13:09:22.752Z,-4.12
2022-12-15T13:11:49.345Z,-4.14
2022-12-15T13:14:40.005Z,-4.04
2022-12-15T13:17:26.576Z,-3.99
2022-12-15T13:19:53.937Z,-4.02
2022-12-15T13:22:27.237Z,-4.05
2022-12-15T13:24:56.733Z,-4.11
2022-12-15T13:27:23.837Z,-4.03
2022-12-15T13:30:01.766Z,-4.03
2022-12-15T13:32:37.243Z,-4.02
2022-12-15T13:35:31.411Z,-4.16
2022-12-15T13:38:02.853Z,-4.00
2022-12-15T13:40:50.433Z,-3.82
2022-12-15T13:43:26.389Z,-4.09
2022-12-15T13:46:00.286Z,-3.97
2022-12-15T13:48:31.337Z,-4.04
2022-12-15T13:51:12.933Z,-3.95
2022-12-15T13:53:51.452Z,-3.85
2022-12-15T13:56:43.086Z,-3.97
2022-12-15T13:59:20.250Z,-3.93
2022-12-15T14:01:51.974Z,-4.14
2022-12-15T14:04:19.589Z,-4.16
2022-12-15T14:06:56.897Z,-3.97
2022-12-15T14:09:40.911Z,-3.92
2022-12-15T14:12:13.656Z,-4.04
2022-12-15T14:14:47.298Z,-4.01
2022-12-15T14:17:18.289Z,-4.08
2022-12-15T14:19:51.189Z,-4.15
2022-12-15T14:22:30.174Z,-3.93
2022-12-15T14:25:29.237Z,-4.19
2022-12-15T14:27:56.575Z,-4.02
2022-12-15T14:30:29.204Z,-4.19
2022-12-15T14:33:13.670Z,-4.29
2022-12-15T14:35:49.293Z,-4.28
2022-12-15T14:39:21.161Z,-4.46
2022-12-15T14:41:49.160Z,-4.35
2022-12-15T14:44:37.611Z,-4.60
2022-12-15T14:47:27.387Z,-4.32
2022-12-15T14:49:56.679Z,-4.61
2022-12-15T14:52:34.854Z,-4.79
2022-12-15T14:55:04.122Z,-4.87
2022-12-15T14:57:44.596Z,-4.59
2022-12-15T15:00:26.120Z,-4.66
2022-12-15T15:03:34.192Z,-4.64
2022-12-15T15:06:21.088Z,-4.59
2022-12-15T15:08:50.297Z,-4.79
2022-12-15T15:11:36.291Z,-4.89
2022-12-15T15:14:08.085Z,-5.01
2022-12-15T15:16:34.989Z,-5.05
2022-12-15T15:19:04.370Z,-5.08
2022-12-15T15:21:36.518Z,-5.00
2022-12-15T15:24:12.174Z,-5.19
2022-12-15T15:26:40.032Z,-5.13
2022-12-15T15:29:43.093Z,-5.34
2022-12-15T15:32:16.631Z,-5.38
2022-12-15T15:34:44.944Z,-5.40
2022-12-15T15:37:23.480Z,-5.37
2022-12-15T15:39:51.457Z,-5.26
2022-12-15T15:42:17.895Z,-5.29
2022-12-15T15:44:44.965Z,-5.59
2022-12-15T15:47:31.729Z,-5.49
2022-12-15T15:49:59.866Z,-5.50
2022-12-15T15:52:29.673Z,-5.43
2022-12-15T15:54:56.245Z,-5.43
2022-12-15T15:57:22.666Z,-5.49
2022-12-15T15:59:49.235Z,-5.60
2022-12-15T16:02:16.046Z,-5.52
2022-12-15T16:04:43.764Z,-5.92
2022-12-15T16:07:28.945Z,-5.73
2022-12-15T16:09:56.691Z,-5.80
2022-12-15T16:12:54.153Z,-6.02
2022-12-15T16:15:23.507Z,-5.94
2022-12-15T16:17:50.056Z,-5.76
2022-12-15T16:20:18.602Z,-6.03
2022-12-15T16:22:48.779Z,-6.04
2022-12-15T16:25:19.250Z,-6.22
2022-12-15T16:27:45.803Z,-6.04
2022-12-15T16:30:18.361Z,-5.85
2022-12-15T16:32:44.775Z,-5.82
2022-12-15T16:35:12.476Z,-5.92
2022-12-15T16:37:40.028Z,-5.82
2022-12-15T16:40:14.852Z,-5.80
2022-12-15T16:42:41.523Z,-6.16
2022-12-15T16:45:19.122Z,-6.25
2022-12-15T16:47:46.089Z,-6.14
2022-12-15T16:50:15.066Z,-6.03
2022-12-15T16:52:43.953Z,-6.05
2022-12-15T16:55:19.715Z,-6.09
2022-12-15T16:57:47.264Z,-6.29
2022-12-15T17:00:19.741Z,-6.33
2022-12-15T17:02:46.634Z,-6.16
2022-12-15T17:05:13.494Z,-5.99
2022-12-15T17:07:40.529Z,-6.02
2022-12-15T17:10:07.764Z,-6.02
2022-12-15T17:12:34.201Z,-6.19
2022-12-15T17:15:02.410Z,-6.05
2022-12-15T17:17:31.068Z,-6.02
2022-12-15T17:20:27.828Z,-6.00
2022-12-15T17:22:47.629Z,-6.08
2022-12-15T17:25:17.494Z,-5.98
2022-12-15T17:27:44.825Z,-5.92
2022-12-15T17:30:14.446Z,-5.98
2022-12-15T17:32:41.257Z,-5.76
2022-12-15T17:35:08.055Z,-6.06
2022-12-15T17:37:35.570Z,-5.90
2022-12-15T17:40:03.167Z,-5.73
2022-12-15T17:42:29.766Z,-5.87
2022-12-15T17:44:56.260Z,-5.76
2022-12-15T17:47:24.141Z,-5.95
2022-12-15T17:49:50.583Z,-5.98
2022-12-15T17:52:16.994Z,-5.79
2022-12-15T17:54:43.710Z,-5.79
2022-12-15T17:57:13.448Z,-5.71
2022-12-15T17:59:39.906Z,-5.80
2022-12-15T18:02:07.078Z,-5.76
2022-12-15T18:04:33.639Z,-5.49
2022-12-15T18:07:02.329Z,-5.47
2022-12-15T18:09:29.572Z,-5.35
2022-12-15T18:11:56.180Z,-5.35
2022-12-15T18:14:22.903Z,-5.29
2022-12-15T18:16:49.618Z,-5.25
2022-12-15T18:19:16.249Z,-5.22
2022-12-15T18:21:42.843Z,-5.13
2022-12-15T18:24:19.184Z,-5.03
2022-12-15T18:26:45.605Z,-4.99
2022-12-15T18:29:14.227Z,-5.15
2022-12-15T18:31:41.852Z,-4.93
2022-12-15T18:34:13.450Z,-5.18
2022-12-15T18:36:40.111Z,-4.97
2022-12-15T18:39:23.452Z,-4.87
2022-12-15T18:41:51.087Z,-4.94
2022-12-15T18:44:25.250Z,-4.84
2022-12-15T18:46:52.265Z,-4.60
2022-12-15T18:49:19.274Z,-4.56
2022-12-15T18:51:47.113Z,-4.43
2022-12-15T18:54:25.265Z,-4.30
2022-12-15T18:56:51.964Z,-4.38
2022-12-15T18:59:18.979Z,-4.25
2022-12-15T19:01:48.172Z,-4.12
2022-12-15T19:04:15.483Z,-4.17
2022-12-15T19:06:42.250Z,-4.16
2022-12-15T19:09:20.147Z,-4.10
2022-12-15T19:12:16.707Z,-4.06
2022-12-15T19:14:44.641Z,-4.08
2022-12-15T19:17:33.094Z,-4.11
2022-12-15T19:20:18.548Z,-3.91
2022-12-15T19:22:46.849Z,-4.00
2022-12-15T19:25:25.527Z,-3.97
2022-12-15T19:27:58.423Z,-3.88
2022-12-15T19:30:31.015Z,-3.78
2022-12-15T19:32:57.450Z,-3.74
2022-12-15T19:35:24.854Z,-3.82
2022-12-15T19:37:54.881Z,-3.76
2022-12-15T19:40:27.287Z,-3.72
2022-12-15T19:42:55.558Z,-3.93
2022-12-15T19:45:25.066Z,-3.92
2022-12-15T19:47:51.594Z,-3.84
2022-12-15T19:50:21.559Z,-3.84
2022-12-15T19:52:51.461Z,-3.91
2022-12-15T19:55:23.547Z,-4.02
2022-12-15T19:57:50.012Z,-4.10
2022-12-15T20:00:21.645Z,-4.05
2022-12-15T20:02:51.345Z,-3.80
2022-12-15T20:05:19.302Z,-4.07
2022-12-15T20:07:46.974Z,-3.73
2022-12-15T20:10:32.799Z,-3.70
2022-12-15T20:13:00.957Z,-3.92
2022-12-15T20:15:27.751Z,-3.88
2022-12-15T20:17:57.610Z,-3.83
2022-12-15T20:20:27.072Z,-3.67
2022-12-15T20:22:56.096Z,-3.74
2022-12-15T20:25:29.514Z,-3.72
2022-12-15T20:27:56.879Z,-3.72
2022-12-15T20:30:26.735Z,-3.38
2022-12-15T20:32:53.660Z,-3.56
2022-12-15T20:35:22.678Z,-3.58
2022-12-15T20:37:49.564Z,-3.40
2022-12-15T20:40:25.242Z,-3.62
2022-12-15T20:42:52.986Z,-3.61
2022-12-15T20:45:22.109Z,-3.52
2022-12-15T20:47:51.182Z,-3.79
2022-12-15T20:50:23.812Z,-3.68
2022-12-15T20:52:50.366Z,-3.61
2022-12-15T20:55:18.915Z,-3.58
2022-12-15T20:57:45.601Z,-3.76
2022-12-15T21:00:17.788Z,-3.97
2022-12-15T21:02:45.555Z,-3.75
2022-12-15T21:05:17.687Z,-3.89
2022-12-15T21:07:45.338Z,-3.76
2022-12-15T21:10:13.921Z,-3.54
2022-12-15T21:12:42.588Z,-3.56
2022-12-15T21:15:16.382Z,-3.63
2022-12-15T21:17:43.257Z,-3.83
2022-12-15T21:20:11.181Z,-3.95
2022-12-15T21:22:37.667Z,-3.97
2022-12-15T21:25:04.611Z,-3.96
2022-12-15T21:27:31.133Z,-4.03
2022-12-15T21:29:57.548Z,-3.80
2022-12-15T21:32:24.131Z,-3.82
2022-12-15T21:34:51.864Z,-3.85
2022-12-15T21:37:28.413Z,-3.92
2022-12-15T21:39:56.090Z,-4.06
2022-12-15T21:42:22.845Z,-3.92
2022-12-15T21:44:49.247Z,-4.01
2022-12-15T21:47:26.031Z,-3.93
2022-12-15T21:49:52.740Z,-4.29
2022-12-15T21:52:19.803Z,-4.37
2022-12-15T21:54:46.289Z,-4.12
2022-12-15T21:57:12.870Z,-3.91
2022-12-15T21:59:39.607Z,-3.95
2022-12-15T22:02:24.843Z,-4.13
2022-12-15T22:04:51.885Z,-4.30
2022-12-15T22:07:18.629Z,-4.01
2022-12-15T22:09:45.074Z,-4.05
2022-12-15T22:12:23.867Z,-4.06
2022-12-15T22:14:50.436Z,-3.94
2022-12-15T22:17:22.245Z,-3.99
2022-12-15T22:19:48.623Z,-3.95
2022-12-15T22:22:15.529Z,-3.81
2022-12-15T22:24:42.567Z,-3.60
2022-12-15T22:27:20.886Z,-3.64
2022-12-15T22:29:49.069Z,-3.57
2022-12-15T22:32:16.966Z,-3.54
2022-12-15T22:34:44.536Z,-3.81
2022-12-15T22:37:10.957Z,-3.67
2022-12-15T22:39:37.325Z,-3.46
2022-12-15T22:42:04.812Z,-3.61
2022-12-15T22:44:34.236Z,-3.57
2022-12-15T22:47:02.427Z,-3.67
2022-12-15T22:49:36.402Z,-3.77
2022-12-15T22:52:03.622Z,-3.71
2022-12-15T22:54:31.913Z,-3.55
2022-12-15T22:57:04.271Z,-3.63
2022-12-15T22:59:37.817Z,-3.67
2022-12-15T23:02:05.112Z,-3.68
2022-12-15T23:04:32.234Z,-3.63
2022-12-15T23:07:01.864Z,-3.62
2022-12-15T23:09:28.584Z,-3.57
2022-12-15T23:11:55.589Z,-3.54
2022-12-15T23:14:44.887Z,-3.59
2022-12-15T23:17:12.988Z,-3.59
2022-12-15T23:19:43.914Z,-3.60
2022-12-15T23:22:10.656Z,-3.66
2022-12-15T23:24:37.087Z,-3.47
2022-12-15T23:27:03.607Z,-3.46
2022-12-15T23:29:30.285Z,-3.60
2022-12-15T23:31:57.151Z,-3.54
2022-12-15T23:34:23.695Z,-3.54
2022-12-15T23:36:50.285Z,-3.56
2022-12-15T23:39:16.760Z,-3.63
2022-12-15T23:41:43.113Z,-3.72
2022-12-15T23:44:09.685Z,-4.02
2022-12-15T23:46:36.165Z,-4.04
2022-12-15T23:49:02.622Z,-3.81
2022-12-15T23:51:29.056Z,-3.71
2022-12-15T23:53:55.446Z,-3.95
2022-12-15T23:56:27.125Z,-3.93
2022-12-15T23:58:56.578Z,-3.87
